Time;durP1;ratioP1;P1;durP2;ratioP2;P2;SDS_P1;SDS_P2;PMS_P1;PMS_P2;Temp;Humidity;BMP_temperature;BMP_pressure;BME280_temperature;BME280_humidity;BME280_pressure;Samples;Min_cycle;Max_cycle;Signal;HPM_P1;HPM_P2
2021/05/16 00:01:56;;;;;;;5.3;2.8;;;;;;;10.31;100;97626.16;;;;
2021/05/16 00:11:55;;;;;;;3.5;2.1;;;;;;;10.28;100;97627.58;;;;
2021/05/16 00:21:54;;;;;;;5.7;2.7;;;;;;;10.28;100;97624.89;;;;
2021/05/16 00:31:53;;;;;;;6.8;3.1;;;;;;;10.32;100;97627.72;;;;
2021/05/16 00:41:52;;;;;;;4.7;2.8;;;;;;;10.39;100;97625.28;;;;
2021/05/16 00:51:50;;;;;;;5.5;3.1;;;;;;;10.52;100;97605.36;;;;
2021/05/16 01:01:51;;;;;;;6.8;4.6;;;;;;;10.53;100;97588.08;;;;
2021/05/16 01:11:48;;;;;;;4.7;2.9;;;;;;;10.39;100;97568.72;;;;
2021/05/16 01:21:46;;;;;;;5.5;3.3;;;;;;;10.25;100;97581.67;;;;
2021/05/16 01:31:45;;;;;;;5.3;3.5;;;;;;;9.96;100;97583.28;;;;
2021/05/16 01:41:44;;;;;;;7.3;3.7;;;;;;;10;100;97586.89;;;;
2021/05/16 01:51:43;;;;;;;5.6;3;;;;;;;10.08;100;97580.67;;;;
2021/05/16 02:01:41;;;;;;;7.7;3.6;;;;;;;9.99;100;97579.16;;;;
2021/05/16 02:21:41;;;;;;;6.4;4.3;;;;;;;10.07;100;97580.98;;;;
2021/05/16 02:31:40;;;;;;;4.8;3;;;;;;;10.02;100;97579.3;;;;
2021/05/16 02:41:39;;;;;;;6.3;3.9;;;;;;;10.17;100;97577.16;;;;
2021/05/16 02:51:36;;;;;;;9.2;6.4;;;;;;;10.28;100;97581.8;;;;
2021/05/16 03:01:34;;;;;;;7.8;5.1;;;;;;;10.39;100;97582.19;;;;
2021/05/16 03:11:33;;;;;;;11.1;5.1;;;;;;;10.4;100;97573.8;;;;
2021/05/16 03:21:32;;;;;;;13.9;4.4;;;;;;;10.56;100;97577.44;;;;
2021/05/16 03:31:31;;;;;;;15;5.2;;;;;;;10.81;100;97566.73;;;;
2021/05/16 03:41:30;;;;;;;7.1;4.5;;;;;;;10.94;100;97563.72;;;;
2021/05/16 03:51:29;;;;;;;7.5;4.8;;;;;;;10.95;100;97581.48;;;;
2021/05/16 04:01:28;;;;;;;6.2;4.2;;;;;;;11.03;100;97556.34;;;;
2021/05/16 04:11:27;;;;;;;8.2;3.6;;;;;;;11.47;100;97572.77;;;;
2021/05/16 04:21:26;;;;;;;10.7;4.4;;;;;;;11.83;100;97580.88;;;;
2021/05/16 04:31:25;;;;;;;8.7;4.4;;;;;;;12;100;97575.22;;;;
2021/05/16 04:41:24;;;;;;;4.6;3.1;;;;;;;12.14;100;97563.25;;;;
2021/05/16 04:51:23;;;;;;;7.8;4.5;;;;;;;12.58;100;97567.59;;;;
2021/05/16 05:01:22;;;;;;;8.3;5.4;;;;;;;12.82;100;97556.65;;;;
2021/05/16 05:11:21;;;;;;;10.1;4.3;;;;;;;13.38;100;97556.53;;;;
2021/05/16 05:21:20;;;;;;;7;5.6;;;;;;;13.6;100;97564.81;;;;
2021/05/16 05:31:19;;;;;;;6.5;4.2;;;;;;;14.15;100;97568.34;;;;
2021/05/16 05:41:19;;;;;;;6.4;3.3;;;;;;;14.69;100;97568.28;;;;
2021/05/16 05:51:19;;;;;;;6.3;2.6;;;;;;;15.26;100;97572.02;;;;
2021/05/16 06:01:18;;;;;;;4.9;2;;;;;;;15.38;100;97569.9;;;;
2021/05/16 06:11:17;;;;;;;4.6;2.4;;;;;;;15.56;100;97565.57;;;;
2021/05/16 06:21:17;;;;;;;7.4;3.8;;;;;;;15.73;100;97577.06;;;;
2021/05/16 06:31:16;;;;;;;4.4;2;;;;;;;15.99;100;97577.08;;;;
2021/05/16 06:41:16;;;;;;;3.2;1.6;;;;;;;16.01;100;97585.63;;;;
2021/05/16 06:51:16;;;;;;;3.5;1.7;;;;;;;16.18;100;97582.38;;;;
2021/05/16 07:01:15;;;;;;;3.3;1.3;;;;;;;16.29;100;97586.02;;;;
2021/05/16 07:11:15;;;;;;;2.2;1.1;;;;;;;16.26;100;97588.69;;;;
2021/05/16 07:21:15;;;;;;;2.5;0.9;;;;;;;16.3;100;97576.72;;;;
2021/05/16 07:31:14;;;;;;;2.5;1.4;;;;;;;16.24;100;97578.2;;;;
2021/05/16 07:41:14;;;;;;;5.4;1.5;;;;;;;16.62;100;97576.36;;;;
2021/05/16 07:51:14;;;;;;;3.1;1.5;;;;;;;16.64;100;97584.92;;;;
2021/05/16 08:01:13;;;;;;;2.1;1.1;;;;;;;16.78;100;97588.59;;;;
2021/05/16 08:11:13;;;;;;;3.3;1.7;;;;;;;16.94;100;97591.08;;;;
2021/05/16 08:21:13;;;;;;;3;1.5;;;;;;;16.52;100;97603.02;;;;
2021/05/16 08:31:13;;;;;;;3.6;1.3;;;;;;;15.93;100;97601.05;;;;
2021/05/16 08:41:12;;;;;;;2.6;0.9;;;;;;;16.03;100;97624.11;;;;
2021/05/16 08:51:12;;;;;;;4;1.8;;;;;;;15.52;100;97632.62;;;;
2021/05/16 09:01:12;;;;;;;4.3;2;;;;;;;15.38;100;97635.06;;;;
2021/05/16 09:11:11;;;;;;;3.3;1;;;;;;;15.36;100;97647.44;;;;
2021/05/16 09:21:11;;;;;;;3.1;1.5;;;;;;;16;100;97652.03;;;;
2021/05/16 09:31:11;;;;;;;3.4;1.9;;;;;;;16.67;100;97650.25;;;;
2021/05/16 09:41:14;;;;;;;2.4;1.1;;;;;;;16.84;100;97660.57;;;;
2021/05/16 09:51:10;;;;;;;1.5;0.8;;;;;;;16.48;100;97661.26;;;;
2021/05/16 10:01:10;;;;;;;2.8;1.1;;;;;;;16.46;100;97652.67;;;;
2021/05/16 10:11:10;;;;;;;3.2;0.9;;;;;;;16.33;100;97656.77;;;;
2021/05/16 10:21:10;;;;;;;2.8;0.9;;;;;;;16.85;100;97664.88;;;;
2021/05/16 10:31:10;;;;;;;5.2;1.9;;;;;;;17.09;100;97650.76;;;;
2021/05/16 10:41:09;;;;;;;4.4;2.2;;;;;;;17.8;100;97648.75;;;;
2021/05/16 10:51:09;;;;;;;2.4;1;;;;;;;18.16;100;97654.44;;;;
2021/05/16 11:01:09;;;;;;;2.1;1.2;;;;;;;18.63;97.92383;97650.86;;;;
2021/05/16 11:11:09;;;;;;;1.7;0.7;;;;;;;18.23;96.68262;97640.84;;;;
2021/05/16 11:21:09;;;;;;;3.1;1.2;;;;;;;18.09;97.07813;97645.05;;;;
2021/05/16 11:31:09;;;;;;;3.7;1.8;;;;;;;18;95.72363;97639.16;;;;
2021/05/16 11:41:09;;;;;;;3.6;1.8;;;;;;;18.08;95.91211;97635.3;;;;
2021/05/16 11:51:09;;;;;;;3.3;1.3;;;;;;;18.02;96.14941;97634.09;;;;
2021/05/16 12:01:09;;;;;;;1.9;0.9;;;;;;;17.67;97.45215;97631.09;;;;
2021/05/16 12:11:09;;;;;;;3.6;1.3;;;;;;;17.6;100;97628.31;;;;
2021/05/16 12:21:09;;;;;;;1.9;1;;;;;;;18.12;96.65918;97631.84;;;;
2021/05/16 12:31:09;;;;;;;3.2;1.8;;;;;;;17.89;97.0332;97618.42;;;;
2021/05/16 12:41:08;;;;;;;1.5;0.7;;;;;;;15.89;100;97637.48;;;;
2021/05/16 12:51:08;;;;;;;2.6;0.9;;;;;;;15.04;100;97634.06;;;;
2021/05/16 13:01:08;;;;;;;1.5;0.8;;;;;;;15.04;100;97620.5;;;;
2021/05/16 13:11:08;;;;;;;2.5;0.7;;;;;;;15.87;100;97626.19;;;;
2021/05/16 13:21:07;;;;;;;5.8;1.5;;;;;;;16.1;100;97635.09;;;;
2021/05/16 13:31:07;;;;;;;3.7;1.6;;;;;;;16.83;100;97629.09;;;;
2021/05/16 13:41:07;;;;;;;2.2;0.8;;;;;;;17.23;100;97622.11;;;;
2021/05/16 13:51:06;;;;;;;3.5;1.6;;;;;;;17.54;100;97637.97;;;;
2021/05/16 14:01:06;;;;;;;2.3;1.1;;;;;;;17.55;99.23926;97629.44;;;;
2021/05/16 14:11:08;;;;;;;2.7;1.2;;;;;;;17.11;96.43359;97621.21;;;;
2021/05/16 14:21:06;;;;;;;4.4;1.9;;;;;;;16.95;100;97623.38;;;;
2021/05/16 14:31:06;;;;;;;3.8;1.7;;;;;;;16.76;97.77832;97612.68;;;;
2021/05/16 14:41:06;;;;;;;2.7;1;;;;;;;17.26;97.60156;97615.91;;;;
2021/05/16 14:51:07;;;;;;;3.3;1.4;;;;;;;17.5;94.31641;97618.86;;;;
2021/05/16 15:01:05;;;;;;;2.5;1;;;;;;;16.76;96.51563;97609.95;;;;
2021/05/16 15:11:05;;;;;;;5.3;2;;;;;;;17.09;96.88281;97596.31;;;;
2021/05/16 15:21:06;;;;;;;3.6;1.4;;;;;;;19.42;88.25586;97598.83;;;;
2021/05/16 15:31:05;;;;;;;3.5;1.4;;;;;;;19.62;86.6543;97600.01;;;;
2021/05/16 15:41:05;;;;;;;5.1;2.2;;;;;;;19.78;86.30664;97584.01;;;;
2021/05/16 15:51:05;;;;;;;3;1.5;;;;;;;19.67;85.42188;97582.44;;;;
2021/05/16 16:01:05;;;;;;;6.5;2.2;;;;;;;20.26;83.19824;97572.58;;;;
2021/05/16 16:11:05;;;;;;;4;2.1;;;;;;;18.71;87.91992;97570.58;;;;
2021/05/16 16:21:05;;;;;;;3.1;1.6;;;;;;;17.66;94.81641;97563.37;;;;
2021/05/16 16:31:05;;;;;;;7.7;3.6;;;;;;;17.92;95.93457;97555.75;;;;
2021/05/16 16:41:05;;;;;;;6.7;4.3;;;;;;;22.02;82.5791;97549.57;;;;
2021/05/16 16:51:05;;;;;;;2.1;1.1;;;;;;;21.96;78.63379;97555.91;;;;
2021/05/16 17:01:06;;;;;;;3.3;1.3;;;;;;;22.7;77.46484;97554.31;;;;
2021/05/16 17:11:06;;;;;;;4.7;1.8;;;;;;;21.79;77.07813;97548.6;;;;
2021/05/16 17:21:07;;;;;;;5.3;2.5;;;;;;;19.6;84.30762;97547.7;;;;
2021/05/16 17:31:07;;;;;;;4.5;1.9;;;;;;;17.96;90.74609;97547.59;;;;
2021/05/16 17:41:07;;;;;;;6.5;2.6;;;;;;;17.03;95.94922;97546.09;;;;
2021/05/16 17:51:06;;;;;;;6.1;2.8;;;;;;;16.15;100;97557.86;;;;
2021/05/16 18:01:06;;;;;;;7.3;3.5;;;;;;;15.27;100;97546.45;;;;
2021/05/16 18:11:05;;;;;;;5.1;2.6;;;;;;;14.46;100;97549.27;;;;
2021/05/16 18:21:05;;;;;;;4.5;2.8;;;;;;;13.82;100;97540.9;;;;
2021/05/16 18:31:04;;;;;;;5.7;2.8;;;;;;;13.22;100;97536.82;;;;
2021/05/16 18:41:03;;;;;;;4;2.3;;;;;;;12.83;100;97535.8;;;;
2021/05/16 18:51:02;;;;;;;5.6;2.9;;;;;;;12.31;100;97542.15;;;;
2021/05/16 19:01:01;;;;;;;4.3;2.4;;;;;;;12.09;100;97548.06;;;;
2021/05/16 19:11:00;;;;;;;7.1;3.4;;;;;;;11.75;100;97543.98;;;;
2021/05/16 19:20:59;;;;;;;9.6;8;;;;;;;11.67;100;97546.77;;;;
2021/05/16 19:30:58;;;;;;;20.1;10.4;;;;;;;11.57;100;97554.21;;;;
2021/05/16 19:40:57;;;;;;;8.7;4.7;;;;;;;11.46;100;97580.06;;;;
2021/05/16 19:50:56;;;;;;;6;4;;;;;;;11.27;100;97597.94;;;;
2021/05/16 20:00:55;;;;;;;11.3;5.2;;;;;;;11.07;100;97580.73;;;;
2021/05/16 20:10:54;;;;;;;8;6.4;;;;;;;11.14;100;97583.66;;;;
2021/05/16 20:20:53;;;;;;;8.6;4.7;;;;;;;10.96;100;97587.66;;;;
2021/05/16 20:30:51;;;;;;;5.6;3.3;;;;;;;10.73;100;97598.03;;;;
2021/05/16 20:40:50;;;;;;;5.8;3.4;;;;;;;10.59;100;97600.22;;;;
2021/05/16 20:50:49;;;;;;;5;3.4;;;;;;;10.39;100;97595.66;;;;
2021/05/16 21:00:48;;;;;;;6.8;2.3;;;;;;;10.14;100;97610.89;;;;
2021/05/16 21:10:47;;;;;;;7.5;2.4;;;;;;;9.95;100;97605.16;;;;
2021/05/16 21:20:46;;;;;;;5.6;3.1;;;;;;;9.7;100;97603.41;;;;
2021/05/16 21:30:44;;;;;;;3.3;1.7;;;;;;;9.45;100;97603.22;;;;
2021/05/16 21:40:43;;;;;;;4.8;2.2;;;;;;;9.2;100;97606.79;;;;
2021/05/16 21:50:42;;;;;;;7.1;2.6;;;;;;;8.98;100;97602.45;;;;
2021/05/16 22:00:42;;;;;;;4.7;3;;;;;;;8.82;100;97590.63;;;;
2021/05/16 22:10:39;;;;;;;6;4.4;;;;;;;8.68;100;97600;;;;
2021/05/16 22:20:37;;;;;;;6.3;4.3;;;;;;;8.5;100;97607.29;;;;
2021/05/16 22:30:36;;;;;;;7.2;3.2;;;;;;;8.4;100;97618.36;;;;
2021/05/16 22:40:34;;;;;;;13.4;4.6;;;;;;;8.24;100;97622.57;;;;
2021/05/16 22:50:33;;;;;;;9.7;4.1;;;;;;;8.03;100;97609.77;;;;
2021/05/16 23:00:31;;;;;;;8.3;4.8;;;;;;;7.94;100;97602.83;;;;
2021/05/16 23:10:30;;;;;;;8;5.1;;;;;;;7.81;100;97604.52;;;;
2021/05/16 23:20:28;;;;;;;8.4;6.3;;;;;;;7.75;100;97595.05;;;;
2021/05/16 23:30:26;;;;;;;6.4;4.2;;;;;;;7.61;100;97580.98;;;;
2021/05/16 23:40:25;;;;;;;8;5;;;;;;;7.52;100;97570.25;;;;
2021/05/16 23:50:23;;;;;;;6.4;4.6;;;;;;;7.43;100;97556.02;;;;
